createdAt,value
2017-08-26T00:02:30.671Z,5.70
2017-08-26T00:04:58.418Z,5.67
2017-08-26T00:07:26.234Z,4.93
2017-08-26T00:19:03.038Z,6.00
2017-08-26T00:21:30.774Z,6.63
2017-08-26T00:23:59.365Z,5.90
2017-08-26T00:26:27.158Z,6.53
2017-08-26T00:28:54.879Z,5.93
2017-08-26T00:31:22.783Z,5.67
2017-08-26T00:33:50.544Z,6.63
2017-08-26T00:36:18.243Z,5.37
2017-08-26T00:38:45.970Z,4.70
2017-08-26T00:41:13.669Z,5.17
2017-08-26T00:43:41.474Z,5.87
2017-08-26T00:46:09.460Z,5.77
2017-08-26T00:48:37.240Z,5.63
2017-08-26T00:51:05.021Z,4.90
2017-08-26T00:53:32.773Z,4.97
2017-08-26T00:56:00.613Z,5.63
2017-08-26T00:58:29.183Z,5.90
2017-08-26T01:00:57.008Z,4.77
2017-08-26T01:03:24.793Z,6.40
2017-08-26T01:05:52.567Z,5.70
2017-08-26T01:08:20.353Z,5.87
2017-08-26T01:10:48.134Z,6.43
2017-08-26T01:13:15.843Z,5.70
2017-08-26T01:15:43.636Z,6.00
2017-08-26T01:18:11.384Z,5.90
2017-08-26T01:20:39.869Z,6.13
2017-08-26T01:23:07.658Z,5.97
2017-08-26T01:25:35.556Z,6.17
2017-08-26T01:28:03.437Z,5.60
2017-08-26T01:30:31.516Z,5.90
2017-08-26T01:32:59.315Z,5.90
2017-08-26T01:35:27.076Z,6.00
2017-08-26T01:37:54.823Z,5.07
2017-08-26T01:40:22.577Z,5.53
2017-08-26T01:42:50.357Z,5.40
2017-08-26T01:45:18.134Z,6.10
2017-08-26T01:47:45.828Z,5.73
2017-08-26T01:50:13.601Z,5.53
2017-08-26T01:52:41.305Z,5.97
2017-08-26T01:55:09.071Z,5.90
2017-08-26T01:57:36.783Z,5.33
2017-08-26T02:00:04.574Z,5.27
2017-08-26T02:02:32.284Z,5.67
2017-08-26T02:04:59.980Z,5.90
2017-08-26T02:07:27.705Z,5.70
2017-08-26T02:09:55.498Z,5.73
2017-08-26T02:12:23.240Z,6.40
2017-08-26T02:14:50.951Z,6.80
2017-08-26T02:17:18.900Z,5.37
2017-08-26T02:19:47.653Z,5.57
2017-08-26T02:22:15.371Z,5.30
2017-08-26T02:24:43.130Z,6.03
2017-08-26T02:27:10.853Z,4.77
2017-08-26T02:29:38.620Z,4.70
2017-08-26T02:32:06.337Z,5.93
2017-08-26T02:34:34.073Z,5.83
2017-08-26T02:37:01.846Z,5.93
2017-08-26T02:39:30.478Z,5.67
2017-08-26T02:41:58.183Z,6.40
2017-08-26T02:44:25.981Z,5.33
2017-08-26T02:46:53.730Z,6.00
2017-08-26T02:49:21.437Z,6.00
2017-08-26T02:51:49.155Z,6.47
2017-08-26T02:54:17.940Z,5.57
2017-08-26T02:56:45.701Z,6.57
2017-08-26T02:59:14.525Z,5.60
2017-08-26T03:01:42.297Z,5.47
2017-08-26T03:04:10.016Z,5.80
2017-08-26T03:06:37.812Z,5.60
2017-08-26T03:09:05.506Z,6.10
2017-08-26T03:11:34.441Z,5.53
2017-08-26T03:14:02.159Z,7.00
2017-08-26T03:16:29.911Z,6.00
2017-08-26T03:18:57.599Z,6.50
2017-08-26T03:21:25.317Z,6.10
2017-08-26T03:23:53.025Z,6.17
2017-08-26T03:26:20.777Z,6.00
2017-08-26T03:28:48.514Z,6.53
2017-08-26T03:31:16.215Z,5.80
2017-08-26T03:33:43.966Z,5.90
2017-08-26T03:36:12.136Z,6.53
2017-08-26T03:38:39.847Z,5.70
2017-08-26T03:41:07.578Z,6.13
2017-08-26T03:43:35.344Z,5.87
2017-08-26T03:46:04.083Z,6.03
2017-08-26T03:48:31.846Z,6.90
2017-08-26T03:50:59.538Z,5.97
2017-08-26T03:53:27.278Z,6.30
2017-08-26T03:55:55.015Z,5.93
2017-08-26T03:58:22.723Z,6.63
2017-08-26T04:00:50.478Z,6.33
2017-08-26T04:03:18.178Z,5.70
2017-08-26T04:05:45.914Z,5.63
2017-08-26T04:08:14.063Z,6.37
2017-08-26T04:10:41.756Z,6.60
2017-08-26T04:13:09.508Z,5.80
2017-08-26T04:15:37.286Z,6.17
2017-08-26T04:18:05.615Z,6.03
2017-08-26T04:20:33.297Z,6.23
2017-08-26T04:23:01.044Z,6.40
2017-08-26T04:25:28.846Z,6.60
2017-08-26T04:27:56.636Z,5.80
2017-08-26T04:30:24.322Z,5.33
2017-08-26T04:32:53.060Z,6.70
2017-08-26T04:35:20.871Z,7.50
2017-08-26T04:37:48.618Z,6.60
2017-08-26T04:40:16.343Z,6.43
2017-08-26T04:42:44.112Z,5.93
2017-08-26T04:45:11.860Z,5.90
2017-08-26T04:47:39.630Z,6.50
2017-08-26T04:50:07.402Z,5.90
2017-08-26T04:52:35.870Z,6.53
2017-08-26T04:55:03.574Z,6.33
2017-08-26T04:57:31.382Z,7.27
2017-08-26T04:59:59.142Z,6.17
2017-08-26T05:02:26.864Z,6.70
2017-08-26T05:04:54.582Z,7.03
2017-08-26T05:07:22.320Z,6.63
2017-08-26T05:09:50.024Z,6.73
2017-08-26T05:12:17.736Z,6.00
2017-08-26T05:14:45.465Z,7.30
2017-08-26T05:17:13.214Z,7.70
2017-08-26T05:19:40.998Z,6.37
2017-08-26T05:22:09.308Z,5.93
2017-08-26T05:24:37.102Z,6.83
2017-08-26T05:27:04.823Z,6.37
2017-08-26T05:29:32.576Z,7.27
2017-08-26T05:32:00.293Z,7.20
2017-08-26T05:34:28.037Z,5.53
2017-08-26T05:36:55.991Z,5.67
2017-08-26T05:39:23.776Z,6.83
2017-08-26T05:41:51.709Z,5.77
2017-08-26T05:44:19.476Z,6.53
2017-08-26T05:46:47.211Z,6.30
2017-08-26T05:49:14.990Z,7.00
2017-08-26T05:51:42.692Z,7.17
2017-08-26T05:54:10.400Z,7.50
2017-08-26T05:56:38.821Z,8.10
2017-08-26T05:59:06.528Z,7.80
2017-08-26T06:01:34.324Z,6.87
2017-08-26T06:04:02.964Z,8.10
2017-08-26T06:06:33.793Z,8.20
2017-08-26T06:09:01.490Z,8.57
2017-08-26T06:11:29.271Z,8.00
2017-08-26T06:13:58.459Z,7.97
2017-08-26T06:16:26.311Z,8.20
2017-08-26T06:18:54.092Z,7.80
2017-08-26T06:21:22.509Z,8.10
2017-08-26T06:23:50.292Z,8.37
2017-08-26T06:26:18.022Z,9.47
2017-08-26T06:28:45.812Z,9.43
2017-08-26T06:31:13.560Z,8.30
2017-08-26T06:33:41.328Z,9.07
2017-08-26T06:36:11.401Z,7.20
2017-08-26T06:38:39.217Z,8.00
2017-08-26T06:41:07.523Z,7.90
2017-08-26T06:43:36.055Z,7.50
2017-08-26T06:46:03.858Z,8.50
2017-08-26T06:48:31.618Z,7.47
2017-08-26T06:50:59.352Z,8.57
2017-08-26T06:53:27.249Z,7.60
2017-08-26T06:55:55.138Z,8.13
2017-08-26T06:58:22.878Z,8.13
2017-08-26T07:00:51.591Z,6.23
2017-08-26T07:03:20.657Z,7.53
2017-08-26T07:05:48.652Z,8.17
2017-08-26T07:08:16.346Z,6.67
2017-08-26T07:10:44.125Z,8.40
2017-08-26T07:13:11.856Z,7.90
2017-08-26T07:15:41.482Z,7.60
2017-08-26T07:18:09.286Z,7.17
2017-08-26T07:20:37.132Z,7.90
2017-08-26T07:23:04.942Z,6.40
2017-08-26T07:25:32.690Z,6.33
2017-08-26T07:28:00.450Z,8.00
2017-08-26T07:30:28.167Z,7.83
2017-08-26T07:32:55.944Z,7.57
2017-08-26T07:35:23.890Z,7.50
2017-08-26T07:37:51.693Z,7.03
2017-08-26T07:40:19.596Z,7.40
2017-08-26T07:42:47.346Z,7.00
2017-08-26T07:45:15.096Z,7.80
2017-08-26T07:47:42.814Z,7.97
2017-08-26T07:50:10.744Z,8.73
2017-08-26T07:52:38.546Z,7.20
2017-08-26T07:55:06.343Z,7.87
2017-08-26T07:57:34.134Z,8.23
2017-08-26T08:00:01.885Z,7.67
2017-08-26T08:02:29.608Z,7.67
2017-08-26T08:04:58.265Z,7.97
2017-08-26T08:07:26.106Z,7.23
2017-08-26T08:09:54.014Z,8.33
2017-08-26T08:12:21.842Z,7.90
2017-08-26T08:14:49.646Z,6.87
2017-08-26T08:17:17.439Z,9.03
2017-08-26T08:19:45.327Z,7.63
2017-08-26T08:22:13.273Z,9.07
2017-08-26T08:24:41.138Z,9.13
2017-08-26T08:27:08.878Z,10.30
2017-08-26T08:29:36.634Z,8.37
2017-08-26T08:32:04.459Z,8.93
2017-08-26T08:34:32.167Z,7.80
2017-08-26T08:37:00.009Z,7.90
2017-08-26T08:39:27.868Z,7.20
2017-08-26T08:41:55.651Z,7.20
2017-08-26T08:44:23.414Z,8.00
2017-08-26T08:46:51.138Z,7.00
2017-08-26T08:49:18.900Z,6.97
2017-08-26T08:51:46.760Z,9.13
2017-08-26T08:54:15.642Z,7.17
2017-08-26T08:56:43.432Z,7.10
2017-08-26T08:59:11.230Z,7.60
2017-08-26T09:01:38.998Z,8.30
2017-08-26T09:04:06.757Z,7.27
2017-08-26T09:06:34.473Z,7.37
2017-08-26T09:09:02.252Z,7.20
2017-08-26T09:11:30.704Z,7.10
2017-08-26T09:13:58.442Z,7.17
2017-08-26T09:16:26.159Z,6.83
2017-08-26T09:18:53.994Z,6.73
2017-08-26T09:21:21.749Z,7.90
2017-08-26T09:23:49.506Z,6.37
2017-08-26T09:26:17.317Z,6.93
2017-08-26T09:28:46.270Z,6.83
2017-08-26T09:31:14.053Z,6.57
2017-08-26T09:33:41.939Z,6.87
2017-08-26T09:36:09.793Z,5.80
2017-08-26T09:38:37.555Z,7.80
2017-08-26T09:41:14.189Z,7.13
2017-08-26T09:43:41.957Z,6.83
2017-08-26T09:46:09.725Z,6.80
2017-08-26T09:48:37.421Z,7.73
2017-08-26T09:51:05.255Z,6.53
2017-08-26T09:53:32.964Z,7.00
2017-08-26T09:56:00.724Z,7.40
2017-08-26T09:58:29.286Z,7.53
2017-08-26T10:00:57.101Z,6.70
2017-08-26T10:03:24.941Z,7.20
2017-08-26T10:05:52.656Z,6.60
2017-08-26T10:08:20.425Z,6.20
2017-08-26T10:10:48.215Z,6.70
2017-08-26T10:13:16.002Z,6.53
2017-08-26T10:15:43.791Z,6.60
2017-08-26T10:18:11.557Z,6.33
2017-08-26T10:20:39.333Z,6.40
2017-08-26T10:23:07.094Z,7.13
2017-08-26T10:25:34.806Z,6.50
2017-08-26T10:28:02.593Z,6.07
2017-08-26T10:30:30.426Z,5.60
2017-08-26T10:32:58.193Z,6.30
2017-08-26T10:35:26.096Z,6.63
2017-08-26T10:37:53.875Z,7.20
2017-08-26T10:40:21.749Z,6.23
2017-08-26T10:42:49.618Z,6.37
2017-08-26T10:45:17.364Z,6.17
2017-08-26T10:47:45.226Z,6.67
2017-08-26T10:50:13.002Z,6.40
2017-08-26T10:52:40.799Z,6.43
2017-08-26T10:55:08.622Z,6.73
2017-08-26T10:57:36.415Z,6.67
2017-08-26T11:00:04.262Z,6.10
2017-08-26T11:02:31.966Z,6.30
2017-08-26T11:04:59.741Z,7.00
2017-08-26T11:07:27.446Z,5.93
2017-08-26T11:09:55.211Z,5.97
2017-08-26T11:12:22.966Z,6.87
2017-08-26T11:14:50.720Z,6.10
2017-08-26T11:17:18.510Z,6.10
2017-08-26T11:19:46.268Z,6.47
2017-08-26T11:22:14.108Z,6.20
2017-08-26T11:24:41.809Z,6.20
2017-08-26T11:27:09.583Z,7.20
2017-08-26T11:29:37.319Z,6.00
2017-08-26T11:32:05.094Z,5.87
2017-08-26T11:34:32.862Z,6.30
2017-08-26T11:37:01.634Z,5.70
2017-08-26T11:39:29.553Z,5.93
2017-08-26T11:41:57.366Z,5.60
2017-08-26T11:44:25.116Z,6.20
2017-08-26T11:46:52.817Z,5.80
2017-08-26T11:49:20.581Z,6.40
2017-08-26T11:51:48.276Z,6.97
2017-08-26T11:54:16.016Z,6.50
2017-08-26T11:56:43.830Z,6.50
2017-08-26T11:59:11.555Z,5.60
2017-08-26T12:01:39.297Z,6.43
2017-08-26T12:04:07.056Z,7.40
2017-08-26T12:06:34.833Z,6.30
2017-08-26T12:09:02.756Z,5.50
2017-08-26T12:11:30.594Z,5.97
2017-08-26T12:13:58.389Z,5.83
2017-08-26T12:16:26.238Z,6.27
2017-08-26T12:18:53.996Z,4.97
2017-08-26T12:21:21.954Z,5.10
2017-08-26T12:23:49.660Z,5.87
2017-08-26T12:26:17.438Z,5.47
2017-08-26T12:28:46.433Z,5.20
2017-08-26T12:31:14.177Z,5.47
2017-08-26T12:33:41.957Z,4.53
2017-08-26T12:36:09.785Z,7.33
2017-08-26T12:38:37.594Z,4.67
2017-08-26T12:41:05.549Z,4.40
2017-08-26T12:43:33.661Z,5.30
2017-08-26T12:46:01.531Z,4.80
2017-08-26T12:48:29.806Z,4.60
2017-08-26T12:50:57.526Z,4.60
2017-08-26T12:53:25.346Z,5.50
2017-08-26T12:55:53.231Z,5.60
2017-08-26T12:58:21.077Z,5.83
2017-08-26T13:00:48.836Z,5.53
2017-08-26T13:03:16.602Z,5.97
2017-08-26T13:05:44.402Z,4.77
2017-08-26T13:08:12.212Z,6.07
2017-08-26T13:10:40.012Z,5.40
2017-08-26T13:13:07.803Z,4.97
2017-08-26T13:15:35.697Z,5.90
2017-08-26T13:18:03.858Z,5.40
2017-08-26T13:20:31.619Z,5.00
2017-08-26T13:22:59.763Z,5.70
2017-08-26T13:25:27.587Z,5.17
2017-08-26T13:27:55.382Z,4.67
2017-08-26T13:30:23.198Z,5.30
2017-08-26T13:32:51.011Z,4.33
2017-08-26T13:35:19.110Z,6.17
2017-08-26T13:37:46.877Z,5.40
2017-08-26T13:40:14.682Z,4.63
2017-08-26T13:42:42.536Z,4.90
2017-08-26T13:45:10.847Z,4.67
2017-08-26T13:47:38.653Z,5.00
2017-08-26T13:50:06.475Z,5.10
2017-08-26T13:52:34.276Z,5.53
2017-08-26T13:55:02.012Z,4.90
2017-08-26T13:57:29.787Z,4.50
2017-08-26T13:59:57.586Z,4.47
2017-08-26T14:02:25.362Z,4.37
2017-08-26T14:04:53.794Z,5.50
2017-08-26T14:07:21.595Z,4.87
2017-08-26T14:09:49.400Z,4.47
2017-08-26T14:12:17.100Z,4.07
2017-08-26T14:14:44.875Z,4.33
2017-08-26T14:17:12.739Z,5.80
2017-08-26T14:19:40.461Z,4.43
2017-08-26T14:22:08.373Z,4.73
2017-08-26T14:24:36.245Z,4.80
2017-08-26T14:27:03.955Z,5.33
2017-08-26T14:29:31.901Z,4.70
2017-08-26T14:31:59.680Z,4.30
2017-08-26T14:34:27.416Z,4.70
2017-08-26T14:36:55.305Z,4.07
2017-08-26T14:39:23.001Z,5.50
2017-08-26T14:41:50.750Z,5.07
2017-08-26T14:44:18.514Z,5.13
2017-08-26T14:46:46.318Z,4.50
2017-08-26T14:49:14.027Z,4.80
2017-08-26T14:51:41.815Z,4.23
2017-08-26T14:54:09.594Z,4.50
2017-08-26T14:56:38.457Z,4.30
2017-08-26T14:59:06.200Z,4.20
2017-08-26T15:01:33.959Z,4.40
2017-08-26T15:04:01.820Z,5.00
2017-08-26T15:06:29.536Z,4.10
2017-08-26T15:08:57.314Z,3.90
2017-08-26T15:11:25.032Z,4.87
2017-08-26T15:13:52.801Z,4.60
2017-08-26T15:16:20.512Z,5.00
2017-08-26T15:18:48.261Z,4.63
2017-08-26T15:21:15.963Z,4.23
2017-08-26T15:23:43.734Z,4.17
2017-08-26T15:26:11.532Z,5.30
2017-08-26T15:28:39.240Z,4.43
2017-08-26T15:31:06.934Z,5.33
2017-08-26T15:33:34.665Z,4.43
2017-08-26T15:36:02.387Z,4.60
2017-08-26T15:38:30.136Z,4.77
2017-08-26T15:40:57.871Z,4.63
2017-08-26T15:43:25.623Z,4.20
2017-08-26T15:45:53.414Z,4.77
2017-08-26T15:48:21.125Z,4.77
2017-08-26T15:50:48.903Z,4.33
2017-08-26T15:53:16.661Z,6.20
2017-08-26T15:55:44.429Z,5.00
2017-08-26T15:58:12.240Z,5.53
2017-08-26T16:00:39.969Z,5.03
2017-08-26T16:03:07.698Z,4.57
2017-08-26T16:05:35.449Z,5.10
2017-08-26T16:08:03.156Z,4.10
2017-08-26T16:10:31.323Z,5.47
2017-08-26T16:12:59.054Z,5.13
2017-08-26T16:15:26.820Z,5.57
2017-08-26T16:17:54.614Z,4.73
2017-08-26T16:20:22.396Z,4.47
2017-08-26T16:22:50.174Z,4.20
2017-08-26T16:25:17.914Z,4.80
2017-08-26T16:27:45.617Z,4.93
2017-08-26T16:30:13.357Z,4.50
2017-08-26T16:32:41.042Z,5.03
2017-08-26T16:35:08.755Z,4.90
2017-08-26T16:37:36.549Z,5.20
2017-08-26T16:40:04.312Z,4.73
2017-08-26T16:42:32.311Z,5.20
2017-08-26T16:45:00.042Z,4.60
2017-08-26T16:47:27.732Z,5.13
2017-08-26T16:49:55.471Z,4.00
2017-08-26T16:52:23.173Z,5.97
2017-08-26T16:54:50.886Z,7.50
2017-08-26T16:57:18.684Z,5.97
2017-08-26T16:59:46.407Z,6.13
2017-08-26T17:02:14.108Z,5.60
2017-08-26T17:04:41.887Z,6.73
2017-08-26T17:07:09.648Z,5.80
2017-08-26T17:09:37.333Z,5.77
2017-08-26T17:12:05.055Z,5.80
2017-08-26T17:14:32.795Z,6.30
2017-08-26T17:17:00.608Z,5.17
2017-08-26T17:19:28.325Z,5.10
2017-08-26T17:21:56.103Z,5.30
2017-08-26T17:24:23.832Z,5.57
2017-08-26T17:26:51.614Z,4.73
2017-08-26T17:29:19.740Z,5.77
2017-08-26T17:31:47.537Z,5.17
2017-08-26T17:34:15.283Z,5.10
2017-08-26T17:36:42.966Z,5.20
2017-08-26T17:39:10.791Z,6.40
2017-08-26T17:41:38.564Z,5.57
2017-08-26T17:44:06.370Z,6.00
2017-08-26T17:46:34.084Z,5.70
2017-08-26T17:49:01.864Z,6.60
2017-08-26T17:51:29.770Z,5.23
2017-08-26T17:53:57.607Z,5.10
2017-08-26T17:56:26.081Z,5.00
2017-08-26T17:58:53.799Z,5.23
2017-08-26T18:01:21.653Z,4.60
2017-08-26T18:03:49.487Z,5.37
2017-08-26T18:06:17.203Z,5.50
2017-08-26T18:08:44.961Z,5.77
2017-08-26T18:11:12.706Z,5.13
2017-08-26T18:13:40.474Z,4.73
2017-08-26T18:16:08.192Z,5.10
2017-08-26T18:18:35.928Z,6.40
2017-08-26T18:21:03.735Z,5.87
2017-08-26T18:23:31.453Z,5.70
2017-08-26T18:25:59.253Z,5.60
2017-08-26T18:28:27.007Z,6.27
2017-08-26T18:30:54.746Z,5.13
2017-08-26T18:33:22.618Z,4.57
2017-08-26T18:35:50.383Z,4.23
2017-08-26T18:38:18.247Z,4.93
2017-08-26T18:40:46.796Z,6.10
2017-08-26T18:43:14.702Z,5.90
2017-08-26T18:45:42.630Z,6.23
2017-08-26T18:48:10.387Z,6.50
2017-08-26T18:50:39.196Z,5.67
2017-08-26T18:53:07.051Z,6.13
2017-08-26T18:55:35.000Z,7.90
2017-08-26T18:58:02.955Z,6.20
2017-08-26T19:00:32.671Z,6.33
2017-08-26T19:03:01.434Z,5.60
2017-08-26T19:05:29.760Z,5.20
2017-08-26T19:07:57.665Z,5.07
2017-08-26T19:10:25.594Z,5.90
2017-08-26T19:12:54.159Z,4.80
2017-08-26T19:15:21.970Z,4.93
2017-08-26T19:17:49.793Z,5.17
2017-08-26T19:20:17.688Z,5.23
2017-08-26T19:22:45.578Z,5.70
2017-08-26T19:25:14.842Z,4.47
2017-08-26T19:27:43.690Z,4.70
2017-08-26T19:30:12.141Z,4.97
2017-08-26T19:32:43.420Z,7.03
2017-08-26T19:35:12.102Z,5.47
2017-08-26T19:37:40.682Z,4.73
2017-08-26T19:40:08.449Z,4.63
2017-08-26T19:42:41.130Z,4.30
2017-08-26T19:45:08.982Z,5.37
2017-08-26T19:47:36.723Z,7.13
2017-08-26T19:50:04.565Z,5.70
2017-08-26T19:52:32.622Z,6.00
2017-08-26T19:55:00.350Z,6.47
2017-08-26T19:57:28.266Z,6.33
2017-08-26T19:59:57.376Z,4.80
2017-08-26T20:02:26.157Z,4.70
2017-08-26T20:04:54.014Z,4.43
2017-08-26T20:07:21.886Z,4.17
2017-08-26T20:09:53.532Z,4.70
2017-08-26T20:12:24.177Z,5.73
2017-08-26T20:14:53.033Z,4.83
2017-08-26T20:17:20.774Z,5.50
2017-08-26T20:19:48.489Z,5.17
2017-08-26T20:22:17.958Z,5.47
2017-08-26T20:24:45.736Z,5.13
2017-08-26T20:27:15.771Z,4.53
2017-08-26T20:29:43.535Z,5.17
2017-08-26T20:32:11.986Z,4.27
2017-08-26T20:34:39.695Z,5.07
2017-08-26T20:37:07.497Z,4.67
2017-08-26T20:39:35.229Z,4.23
2017-08-26T20:42:02.997Z,4.40
2017-08-26T20:44:30.761Z,5.03
2017-08-26T20:46:58.467Z,3.97
2017-08-26T20:49:26.261Z,4.20
2017-08-26T20:51:54.039Z,4.03
2017-08-26T20:54:21.746Z,4.40
2017-08-26T20:56:49.538Z,4.63
2017-08-26T20:59:17.369Z,5.17
2017-08-26T21:01:45.142Z,4.43
2017-08-26T21:04:12.921Z,5.20
2017-08-26T21:06:40.686Z,3.73
2017-08-26T21:09:08.478Z,4.80
2017-08-26T21:11:36.204Z,4.10
2017-08-26T21:14:03.953Z,3.93
2017-08-26T21:16:32.007Z,3.50
2017-08-26T21:18:59.771Z,3.23
2017-08-26T21:21:27.538Z,3.63
2017-08-26T21:23:55.308Z,3.30
2017-08-26T21:26:23.038Z,3.70
2017-08-26T21:28:51.129Z,3.70
2017-08-26T21:31:18.969Z,2.90
2017-08-26T21:33:46.702Z,3.57
2017-08-26T21:36:14.528Z,3.00
2017-08-26T21:38:42.338Z,3.23
2017-08-26T21:41:10.131Z,4.03
2017-08-26T21:43:37.938Z,3.70
2017-08-26T21:46:06.877Z,3.50
2017-08-26T21:48:34.870Z,3.77
2017-08-26T21:51:02.633Z,3.40
2017-08-26T21:53:30.394Z,3.80
2017-08-26T21:55:58.149Z,4.90
2017-08-26T21:58:25.928Z,3.40
2017-08-26T22:00:54.432Z,4.30
2017-08-26T22:03:22.158Z,4.07
2017-08-26T22:05:49.998Z,3.00
2017-08-26T22:08:17.726Z,3.37
2017-08-26T22:10:45.508Z,3.00
2017-08-26T22:13:13.357Z,3.00
2017-08-26T22:15:41.108Z,2.80
2017-08-26T22:18:08.913Z,3.27
2017-08-26T22:20:36.626Z,3.47
2017-08-26T22:23:04.458Z,3.87
2017-08-26T22:25:32.239Z,4.30
2017-08-26T22:27:59.981Z,3.50
2017-08-26T22:30:27.922Z,3.40
2017-08-26T22:32:55.640Z,3.10
2017-08-26T22:35:23.473Z,3.67
2017-08-26T22:37:51.172Z,3.33
2017-08-26T22:40:19.050Z,4.03
2017-08-26T22:42:46.776Z,3.13
2017-08-26T22:45:14.531Z,3.23
2017-08-26T22:47:42.316Z,3.77
2017-08-26T22:50:10.063Z,2.93
2017-08-26T22:52:37.931Z,2.87
2017-08-26T22:55:06.786Z,3.20
2017-08-26T22:57:34.500Z,3.70
2017-08-26T23:00:02.214Z,3.77
2017-08-26T23:02:30.005Z,3.47
2017-08-26T23:04:57.698Z,2.57
2017-08-26T23:07:25.473Z,4.57
2017-08-26T23:09:53.286Z,3.90
2017-08-26T23:12:21.112Z,3.50
2017-08-26T23:14:48.828Z,3.10
2017-08-26T23:17:16.590Z,3.47
2017-08-26T23:19:44.315Z,3.80
2017-08-26T23:22:12.012Z,3.60
2017-08-26T23:24:39.796Z,3.73
2017-08-26T23:27:07.537Z,4.33
2017-08-26T23:29:35.231Z,3.37
2017-08-26T23:32:03.600Z,2.97
2017-08-26T23:34:31.320Z,3.73
2017-08-26T23:36:59.030Z,2.90
2017-08-26T23:39:26.806Z,4.57
2017-08-26T23:41:54.521Z,2.93
2017-08-26T23:44:22.272Z,3.50
2017-08-26T23:46:50.168Z,3.87
2017-08-26T23:49:17.891Z,3.80
2017-08-26T23:51:45.624Z,3.53
2017-08-26T23:54:13.328Z,3.87
2017-08-26T23:56:41.030Z,4.00
2017-08-26T23:59:08.775Z,3.27
